Time,TemperatureF,DewpointF,PressureIn,WindDirection,WindDirectionDegrees,WindSpeedMPH,WindSpeedGustMPH,Humidity,HourlyPrecipIn,Conditions,Clouds,dailyrainin,SolarRadiationWatts/m^2,SoftwareType,DateUTC
2013-04-15 00:02:00,20.0,17.0,-100.00,ENE,72,7.0,17.0,89,0.00,,,0.00,0.000000,,2013-04-15 06:02:00,
2013-04-15 00:12:00,20.0,17.0,-100.00,ENE,72,7.0,17.0,89,0.00,,,0.00,0.000000,,2013-04-15 06:12:00,
2013-04-15 00:43:00,19.0,17.0,-100.00,ENE,63,6.0,11.0,92,0.00,,,0.00,0.000000,,2013-04-15 06:43:00,
2013-04-15 00:52:00,19.0,17.0,-100.00,ENE,63,6.0,11.0,92,0.00,,,0.00,0.000000,,2013-04-15 06:52:00,
2013-04-15 01:02:00,19.0,17.0,-100.00,ENE,63,6.0,11.0,92,0.00,,,0.00,0.000000,,2013-04-15 07:02:00,
2013-04-15 01:21:00,18.0,16.0,-100.00,NE,51,11.0,13.0,91,0.00,,,0.00,0.000000,,2013-04-15 07:21:00,
2013-04-15 01:43:00,18.0,16.0,-100.00,NE,51,11.0,13.0,91,0.00,,,0.00,0.000000,,2013-04-15 07:43:00,
2013-04-15 01:53:00,18.0,16.0,-100.00,NE,51,11.0,13.0,91,0.00,,,0.00,0.000000,,2013-04-15 07:53:00,
2013-04-15 02:02:00,18.0,16.0,-100.00,NE,51,11.0,13.0,91,0.00,,,0.00,0.000000,,2013-04-15 08:02:00,
2013-04-15 02:12:00,18.0,16.0,-100.00,NE,51,11.0,13.0,91,0.00,,,0.00,0.000000,,2013-04-15 08:12:00,
2013-04-15 02:21:00,18.0,16.0,-100.00,NE,34,5.0,11.0,90,0.00,,,0.00,0.000000,,2013-04-15 08:21:00,
2013-04-15 02:43:00,18.0,16.0,-100.00,NE,34,5.0,11.0,90,0.00,,,0.00,0.000000,,2013-04-15 08:43:00,
2013-04-15 02:52:00,18.0,16.0,-100.00,NE,34,5.0,11.0,90,0.00,,,0.00,0.000000,,2013-04-15 08:52:00,
2013-04-15 03:02:00,18.0,16.0,-100.00,NE,34,5.0,11.0,90,0.00,,,0.00,0.000000,,2013-04-15 09:02:00,
2013-04-15 03:12:00,18.0,16.0,-100.00,NE,34,5.0,11.0,90,0.00,,,0.00,0.000000,,2013-04-15 09:12:00,
2013-04-15 03:21:00,19.0,17.0,-100.00,NE,38,7.0,12.0,91,0.00,,,0.00,0.000000,,2013-04-15 09:21:00,
2013-04-15 03:43:00,19.0,17.0,-100.00,NE,38,7.0,12.0,91,0.00,,,0.00,0.000000,,2013-04-15 09:43:00,
2013-04-15 03:53:00,19.0,17.0,-100.00,NE,38,7.0,12.0,91,0.00,,,0.00,0.000000,,2013-04-15 09:53:00,
2013-04-15 04:02:00,19.0,17.0,-100.00,NE,38,7.0,12.0,91,0.00,,,0.00,0.000000,,2013-04-15 10:02:00,
2013-04-15 04:12:00,19.0,17.0,-100.00,NE,38,7.0,12.0,91,0.00,,,0.00,0.000000,,2013-04-15 10:12:00,
2013-04-15 04:21:00,18.0,16.0,-100.00,ENE,61,3.0,9.0,91,0.00,,,0.00,0.000000,,2013-04-15 10:21:00,
2013-04-15 04:42:00,18.0,16.0,-100.00,ENE,61,3.0,9.0,91,0.00,,,0.00,0.000000,,2013-04-15 10:42:00,
2013-04-15 04:53:00,18.0,16.0,-100.00,ENE,61,3.0,9.0,91,0.00,,,0.00,0.000000,,2013-04-15 10:53:00,
2013-04-15 05:03:00,18.0,16.0,-100.00,ENE,61,3.0,9.0,91,0.00,,,0.00,0.000000,,2013-04-15 11:03:00,
2013-04-15 05:12:00,18.0,16.0,-100.00,ENE,61,3.0,9.0,91,0.00,,,0.00,0.000000,,2013-04-15 11:12:00,
2013-04-15 05:21:00,17.0,15.0,-100.00,NNE,30,6.0,7.0,92,0.00,,,0.00,0.000000,,2013-04-15 11:21:00,
2013-04-15 05:43:00,17.0,15.0,-100.00,NNE,30,6.0,7.0,92,0.00,,,0.00,0.000000,,2013-04-15 11:43:00,
2013-04-15 05:53:00,17.0,15.0,-100.00,NNE,30,6.0,7.0,92,0.00,,,0.00,0.000000,,2013-04-15 11:53:00,
2013-04-15 06:03:00,17.0,15.0,-100.00,NNE,30,6.0,7.0,92,0.00,,,0.00,0.000000,,2013-04-15 12:03:00,
2013-04-15 06:13:00,17.0,15.0,-100.00,NNE,30,6.0,7.0,92,0.00,,,0.00,0.000000,,2013-04-15 12:13:00,
2013-04-15 06:21:00,17.0,15.0,-100.00,WSW,254,1.0,7.0,91,0.00,,,0.00,0.000000,,2013-04-15 12:21:00,
2013-04-15 06:43:00,17.0,15.0,-100.00,WSW,254,1.0,7.0,91,0.00,,,0.00,0.000000,,2013-04-15 12:43:00,
2013-04-15 06:53:00,17.0,15.0,-100.00,WSW,254,1.0,7.0,91,0.00,,,0.00,0.000000,,2013-04-15 12:53:00,
2013-04-15 07:03:00,17.0,15.0,-100.00,WSW,254,1.0,7.0,91,0.00,,,0.00,0.000000,,2013-04-15 13:03:00,
2013-04-15 07:12:00,17.0,15.0,-100.00,WSW,254,1.0,7.0,91,0.00,,,0.00,0.000000,,2013-04-15 13:12:00,
2013-04-15 07:21:00,19.0,17.0,-100.00,NW,306,4.0,6.0,91,0.00,,,0.00,17.000000,,2013-04-15 13:21:00,
2013-04-15 07:43:00,19.0,17.0,-100.00,NW,306,4.0,6.0,91,0.00,,,0.00,17.000000,,2013-04-15 13:43:00,
2013-04-15 07:53:00,19.0,17.0,-100.00,NW,306,4.0,6.0,91,0.00,,,0.00,17.000000,,2013-04-15 13:53:00,
2013-04-15 08:04:00,19.0,17.0,-100.00,NW,306,4.0,6.0,91,0.00,,,0.00,17.000000,,2013-04-15 14:04:00,
2013-04-15 08:12:00,19.0,17.0,-100.00,NW,306,4.0,6.0,91,0.00,,,0.00,17.000000,,2013-04-15 14:12:00,
2013-04-15 08:21:00,22.0,18.0,-100.00,NNW,332,5.0,8.0,85,0.00,,,0.00,155.000000,,2013-04-15 14:21:00,
2013-04-15 08:44:00,22.0,18.0,-100.00,NNW,332,5.0,8.0,85,0.00,,,0.00,155.000000,,2013-04-15 14:44:00,
2013-04-15 08:54:00,22.0,18.0,-100.00,NNW,332,5.0,8.0,85,0.00,,,0.00,155.000000,,2013-04-15 14:54:00,
2013-04-15 09:03:00,22.0,18.0,-100.00,NNW,332,5.0,8.0,85,0.00,,,0.00,155.000000,,2013-04-15 15:03:00,
2013-04-15 09:12:00,22.0,18.0,-100.00,NNW,332,5.0,8.0,85,0.00,,,0.00,155.000000,,2013-04-15 15:12:00,
2013-04-15 09:21:00,21.0,16.0,-100.00,NNW,329,8.0,11.0,81,0.00,,,0.00,234.000000,,2013-04-15 15:21:00,
2013-04-15 09:45:00,21.0,16.0,-100.00,NNW,329,8.0,11.0,81,0.00,,,0.00,234.000000,,2013-04-15 15:45:00,
2013-04-15 09:54:00,21.0,16.0,-100.00,NNW,329,8.0,11.0,81,0.00,,,0.00,234.000000,,2013-04-15 15:54:00,
2013-04-15 10:04:00,21.0,16.0,-100.00,NNW,329,8.0,11.0,81,0.00,,,0.00,234.000000,,2013-04-15 16:04:00,
2013-04-15 10:21:00,24.0,18.0,-100.00,NW,320,5.0,12.0,76,0.00,,,0.00,313.000000,,2013-04-15 16:21:00,
2013-04-15 10:44:00,24.0,18.0,-100.00,NW,320,5.0,12.0,76,0.00,,,0.00,313.000000,,2013-04-15 16:44:00,
2013-04-15 10:54:00,24.0,18.0,-100.00,NW,320,5.0,12.0,76,0.00,,,0.00,313.000000,,2013-04-15 16:54:00,
2013-04-15 11:03:00,24.0,18.0,-100.00,NW,320,5.0,12.0,76,0.00,,,0.00,313.000000,,2013-04-15 17:03:00,
2013-04-15 11:13:00,24.0,18.0,-100.00,NW,320,5.0,12.0,76,0.00,,,0.00,313.000000,,2013-04-15 17:13:00,
2013-04-15 11:21:00,25.0,17.0,-100.00,NNW,332,5.0,11.0,71,0.00,,,0.00,402.000000,,2013-04-15 17:21:00,
2013-04-15 11:43:00,25.0,17.0,-100.00,NNW,332,5.0,11.0,71,0.00,,,0.00,402.000000,,2013-04-15 17:43:00,
2013-04-15 11:52:00,25.0,17.0,-100.00,NNW,332,5.0,11.0,71,0.00,,,0.00,402.000000,,2013-04-15 17:52:00,
2013-04-15 12:02:00,25.0,17.0,-100.00,NNW,332,5.0,11.0,71,0.00,,,0.00,402.000000,,2013-04-15 18:02:00,
2013-04-15 12:12:00,25.0,17.0,-100.00,NNW,332,5.0,11.0,71,0.00,,,0.00,402.000000,,2013-04-15 18:12:00,
2013-04-15 12:21:00,25.0,19.0,-100.00,NNW,348,7.0,12.0,77,0.00,,,0.00,363.000000,,2013-04-15 18:21:00,
2013-04-15 12:42:00,25.0,19.0,-100.00,NNW,348,7.0,12.0,77,0.00,,,0.00,363.000000,,2013-04-15 18:42:00,
2013-04-15 12:52:00,25.0,19.0,-100.00,NNW,348,7.0,12.0,77,0.00,,,0.00,363.000000,,2013-04-15 18:52:00,
2013-04-15 13:02:00,25.0,19.0,-100.00,NNW,348,7.0,12.0,77,0.00,,,0.00,363.000000,,2013-04-15 19:02:00,
2013-04-15 13:12:00,25.0,19.0,-100.00,NNW,348,7.0,12.0,77,0.00,,,0.00,363.000000,,2013-04-15 19:12:00,
2013-04-15 13:21:00,26.0,19.0,-100.00,West,271,4.0,11.0,74,0.00,,,0.00,342.000000,,2013-04-15 19:21:00,
2013-04-15 13:58:00,26.0,19.0,-100.00,West,271,4.0,11.0,74,0.00,,,0.00,342.000000,,2013-04-15 19:58:00,
2013-04-15 14:02:00,26.0,19.0,-100.00,West,271,4.0,11.0,74,0.00,,,0.00,342.000000,,2013-04-15 20:02:00,
2013-04-15 14:11:00,26.0,19.0,-100.00,West,271,4.0,11.0,74,0.00,,,0.00,342.000000,,2013-04-15 20:11:00,
2013-04-15 14:21:00,28.0,20.0,-100.00,NW,313,8.0,12.0,73,0.00,,,0.00,328.000000,,2013-04-15 20:21:00,
2013-04-15 14:42:00,28.0,20.0,-100.00,NW,313,8.0,12.0,73,0.00,,,0.00,328.000000,,2013-04-15 20:42:00,
2013-04-15 14:52:00,28.0,20.0,-100.00,NW,313,8.0,12.0,73,0.00,,,0.00,328.000000,,2013-04-15 20:52:00,
2013-04-15 15:02:00,28.0,20.0,-100.00,NW,313,8.0,12.0,73,0.00,,,0.00,328.000000,,2013-04-15 21:02:00,
2013-04-15 15:11:00,28.0,20.0,-100.00,NW,313,8.0,12.0,73,0.00,,,0.00,328.000000,,2013-04-15 21:11:00,
2013-04-15 15:21:00,28.0,17.0,-100.00,North,2,10.0,12.0,62,0.00,,,0.00,403.000000,,2013-04-15 21:21:00,
2013-04-15 15:43:00,28.0,17.0,-100.00,North,2,10.0,12.0,62,0.00,,,0.00,403.000000,,2013-04-15 21:43:00,
2013-04-15 15:53:00,28.0,17.0,-100.00,North,2,10.0,12.0,62,0.00,,,0.00,403.000000,,2013-04-15 21:53:00,
2013-04-15 16:02:00,28.0,17.0,-100.00,North,2,10.0,12.0,62,0.00,,,0.00,403.000000,,2013-04-15 22:02:00,
2013-04-15 16:13:00,28.0,17.0,-100.00,North,2,10.0,12.0,62,0.00,,,0.00,403.000000,,2013-04-15 22:13:00,
2013-04-15 16:21:00,29.0,18.0,-100.00,NNE,18,9.0,17.0,62,0.00,,,0.00,304.000000,,2013-04-15 22:21:00,
2013-04-15 16:42:00,29.0,18.0,-100.00,NNE,18,9.0,17.0,62,0.00,,,0.00,304.000000,,2013-04-15 22:42:00,
2013-04-15 16:52:00,29.0,18.0,-100.00,NNE,18,9.0,17.0,62,0.00,,,0.00,304.000000,,2013-04-15 22:52:00,
2013-04-15 17:02:00,29.0,18.0,-100.00,NNE,18,9.0,17.0,62,0.00,,,0.00,304.000000,,2013-04-15 23:02:00,
2013-04-15 17:12:00,29.0,18.0,-100.00,NNE,18,9.0,17.0,62,0.00,,,0.00,304.000000,,2013-04-15 23:12:00,
2013-04-15 17:21:00,26.0,18.0,-100.00,NE,52,8.0,16.0,72,0.00,,,0.00,161.000000,,2013-04-15 23:21:00,
2013-04-15 17:42:00,26.0,18.0,-100.00,NE,52,8.0,16.0,72,0.00,,,0.00,161.000000,,2013-04-15 23:42:00,
2013-04-15 17:52:00,26.0,18.0,-100.00,NE,52,8.0,16.0,72,0.00,,,0.00,161.000000,,2013-04-15 23:52:00,
2013-04-15 18:02:00,26.0,18.0,-100.00,NE,52,8.0,16.0,72,0.00,,,0.00,161.000000,,2013-04-16 00:02:00,
2013-04-15 18:11:00,26.0,18.0,-100.00,NE,52,8.0,16.0,72,0.00,,,0.00,161.000000,,2013-04-16 00:11:00,
2013-04-15 18:21:00,28.0,19.0,-100.00,NE,54,6.0,10.0,69,0.00,,,0.00,156.000000,,2013-04-16 00:21:00,
2013-04-15 18:42:00,28.0,19.0,-100.00,NE,54,6.0,10.0,69,0.00,,,0.00,156.000000,,2013-04-16 00:42:00,
2013-04-15 18:52:00,28.0,19.0,-100.00,NE,54,6.0,10.0,69,0.00,,,0.00,156.000000,,2013-04-16 00:52:00,
2013-04-15 19:02:00,28.0,19.0,-100.00,NE,54,6.0,10.0,69,0.00,,,0.00,156.000000,,2013-04-16 01:02:00,
2013-04-15 19:12:00,28.0,19.0,-100.00,NE,54,6.0,10.0,69,0.00,,,0.00,156.000000,,2013-04-16 01:12:00,
2013-04-15 19:21:00,27.0,20.0,-100.00,East,99,5.0,14.0,76,0.00,,,0.00,58.000000,,2013-04-16 01:21:00,
2013-04-15 19:42:00,27.0,20.0,-100.00,East,99,5.0,14.0,76,0.00,,,0.00,58.000000,,2013-04-16 01:42:00,
2013-04-15 19:52:00,27.0,20.0,-100.00,East,99,5.0,14.0,76,0.00,,,0.00,58.000000,,2013-04-16 01:52:00,
2013-04-15 20:02:00,27.0,20.0,-100.00,East,99,5.0,14.0,76,0.00,,,0.00,58.000000,,2013-04-16 02:02:00,
2013-04-15 20:12:00,27.0,20.0,-100.00,East,99,5.0,14.0,76,0.00,,,0.00,58.000000,,2013-04-16 02:12:00,
2013-04-15 20:21:00,26.0,19.0,-100.00,ENE,78,9.0,15.0,75,0.00,,,0.00,6.000000,,2013-04-16 02:21:00,
2013-04-15 20:42:00,26.0,19.0,-100.00,ENE,78,9.0,15.0,75,0.00,,,0.00,6.000000,,2013-04-16 02:42:00,
2013-04-15 20:52:00,26.0,19.0,-100.00,ENE,78,9.0,15.0,75,0.00,,,0.00,6.000000,,2013-04-16 02:52:00,
2013-04-15 21:02:00,26.0,19.0,-100.00,ENE,78,9.0,15.0,75,0.00,,,0.00,6.000000,,2013-04-16 03:02:00,
2013-04-15 21:12:00,26.0,19.0,-100.00,ENE,78,9.0,15.0,75,0.00,,,0.00,6.000000,,2013-04-16 03:12:00,
2013-04-15 21:21:00,26.0,23.0,-100.00,ENE,59,6.0,11.0,89,0.00,,,0.00,0.000000,,2013-04-16 03:21:00,
2013-04-15 21:43:00,26.0,23.0,-100.00,ENE,59,6.0,11.0,89,0.00,,,0.00,0.000000,,2013-04-16 03:43:00,
2013-04-15 21:52:00,26.0,23.0,-100.00,ENE,59,6.0,11.0,89,0.00,,,0.00,0.000000,,2013-04-16 03:52:00,
2013-04-15 22:02:00,26.0,23.0,-100.00,ENE,59,6.0,11.0,89,0.00,,,0.00,0.000000,,2013-04-16 04:02:00,
2013-04-15 22:12:00,26.0,23.0,-100.00,ENE,59,6.0,11.0,89,0.00,,,0.00,0.000000,,2013-04-16 04:12:00,
2013-04-15 22:21:00,25.0,22.0,-100.00,ESE,119,5.0,7.0,87,0.00,,,0.00,0.000000,,2013-04-16 04:21:00,
2013-04-15 22:42:00,25.0,22.0,-100.00,ESE,119,5.0,7.0,87,0.00,,,0.00,0.000000,,2013-04-16 04:42:00,
2013-04-15 22:53:00,25.0,22.0,-100.00,ESE,119,5.0,7.0,87,0.00,,,0.00,0.000000,,2013-04-16 04:53:00,
2013-04-15 23:02:00,25.0,22.0,-100.00,ESE,119,5.0,7.0,87,0.00,,,0.00,0.000000,,2013-04-16 05:02:00,
2013-04-15 23:12:00,25.0,22.0,-100.00,ESE,119,5.0,7.0,87,0.00,,,0.00,0.000000,,2013-04-16 05:12:00,
2013-04-15 23:21:00,24.0,22.0,-100.00,ESE,106,5.0,8.0,93,0.00,,,0.00,0.000000,,2013-04-16 05:21:00,
2013-04-15 23:42:00,24.0,22.0,-100.00,ESE,106,5.0,8.0,93,0.00,,,0.00,0.000000,,2013-04-16 05:42:00,
2013-04-15 23:52:00,24.0,22.0,-100.00,ESE,106,5.0,8.0,93,0.00,,,0.00,0.000000,,2013-04-16 05:52:00,